createdAt,value
2023-05-21T00:03:47.669Z,20.00
2023-05-21T00:08:49.486Z,21.27
2023-05-21T00:13:51.236Z,20.77
2023-05-21T00:18:54.631Z,21.57
2023-05-21T00:23:56.808Z,18.90
2023-05-21T00:28:58.623Z,21.33
2023-05-21T00:34:00.667Z,23.50
2023-05-21T00:39:02.510Z,20.93
2023-05-21T00:44:04.496Z,21.97
2023-05-21T00:49:06.818Z,23.53
2023-05-21T00:54:08.556Z,22.83
2023-05-21T00:59:10.601Z,23.00
2023-05-21T01:04:13.200Z,25.50
2023-05-21T01:09:15.641Z,28.10
2023-05-21T01:14:18.921Z,24.17
2023-05-21T01:19:22.750Z,26.53
2023-05-21T01:24:24.590Z,27.83
2023-05-21T01:29:26.394Z,25.10
2023-05-21T01:34:41.985Z,26.47
2023-05-21T01:39:50.063Z,27.17
2023-05-21T01:44:57.203Z,28.33
2023-05-21T01:50:00.708Z,28.53
2023-05-21T01:55:02.558Z,27.83
2023-05-21T02:00:05.614Z,31.43
2023-05-21T02:05:08.711Z,27.93
2023-05-21T02:10:11.000Z,30.13
2023-05-21T02:15:14.394Z,32.50
2023-05-21T02:20:16.290Z,29.63
2023-05-21T02:25:19.819Z,29.33
2023-05-21T02:30:21.633Z,34.07
2023-05-21T02:35:23.337Z,28.73
2023-05-21T02:40:25.407Z,33.70
2023-05-21T02:45:28.462Z,32.47
2023-05-21T02:50:30.155Z,32.27
2023-05-21T02:55:31.995Z,29.40
2023-05-21T03:00:33.792Z,30.97
2023-05-21T03:05:35.712Z,31.37
2023-05-21T03:10:37.727Z,30.13
2023-05-21T03:15:39.723Z,31.00
2023-05-21T03:20:43.820Z,35.37
2023-05-21T03:25:46.225Z,32.27
2023-05-21T03:30:49.743Z,35.07
2023-05-21T03:35:51.757Z,36.53
2023-05-21T03:40:54.208Z,34.33
2023-05-21T03:45:56.328Z,36.83
2023-05-21T03:50:58.052Z,37.13
2023-05-21T03:55:59.771Z,38.97
2023-05-21T04:01:02.784Z,38.30
2023-05-21T04:06:04.814Z,36.40
2023-05-21T04:11:06.650Z,36.73
2023-05-21T04:16:09.475Z,41.10
2023-05-21T04:21:11.488Z,40.83
2023-05-21T04:26:13.247Z,40.03
2023-05-21T04:31:15.109Z,36.70
2023-05-21T04:36:17.394Z,36.40
2023-05-21T04:41:19.288Z,41.17
2023-05-21T04:46:25.383Z,38.50
2023-05-21T04:51:27.213Z,39.97
2023-05-21T04:56:29.621Z,42.87
2023-05-21T05:01:32.368Z,41.77
2023-05-21T05:06:34.138Z,45.83
2023-05-21T05:11:35.837Z,41.17
2023-05-21T05:16:38.187Z,42.03
2023-05-21T05:21:40.004Z,41.00
2023-05-21T05:26:41.853Z,43.43
2023-05-21T05:31:43.645Z,45.03
2023-05-21T05:36:45.393Z,50.63
2023-05-21T05:41:47.132Z,42.33
2023-05-21T05:46:48.871Z,43.00
2023-05-21T05:51:50.596Z,49.40
2023-05-21T05:56:52.294Z,49.30
2023-05-21T06:01:54.031Z,44.63
2023-05-21T06:07:00.563Z,45.43
2023-05-21T06:12:02.349Z,46.60
2023-05-21T06:17:04.166Z,46.30
2023-05-21T06:22:05.940Z,44.90
2023-05-21T06:27:07.708Z,43.63
2023-05-21T06:32:09.675Z,40.90
2023-05-21T06:37:11.440Z,37.93
2023-05-21T06:42:13.210Z,43.27
2023-05-21T06:47:14.979Z,40.57
2023-05-21T06:52:16.702Z,42.63
2023-05-21T06:57:18.741Z,39.47
2023-05-21T07:02:20.536Z,40.10
2023-05-21T07:07:22.406Z,37.10
2023-05-21T07:12:24.137Z,42.13
2023-05-21T07:17:26.004Z,43.73
2023-05-21T07:22:28.470Z,34.53
2023-05-21T07:27:30.690Z,35.33
2023-05-21T07:32:32.461Z,39.83
2023-05-21T07:37:34.337Z,35.83
2023-05-21T07:42:36.162Z,34.80
2023-05-21T07:47:37.950Z,35.20
2023-05-21T07:52:39.761Z,34.90
2023-05-21T07:57:41.917Z,38.10
2023-05-21T08:02:44.056Z,35.80
2023-05-21T08:07:46.311Z,32.67
2023-05-21T08:12:48.077Z,33.67
2023-05-21T08:17:49.839Z,29.60
2023-05-21T08:22:51.927Z,34.17
2023-05-21T08:27:53.910Z,32.07
2023-05-21T08:32:55.804Z,30.63
2023-05-21T08:37:57.784Z,30.07
2023-05-21T08:43:01.068Z,29.13
2023-05-21T08:48:03.498Z,29.07
2023-05-21T08:53:12.676Z,29.90
2023-05-21T08:58:25.693Z,28.43
2023-05-21T09:03:29.384Z,26.50
2023-05-21T09:08:33.928Z,27.07
2023-05-21T09:13:38.945Z,27.87
2023-05-21T09:18:41.062Z,25.47
2023-05-21T09:23:44.485Z,27.57
2023-05-21T09:28:46.265Z,27.57
2023-05-21T09:33:48.296Z,24.27
2023-05-21T09:38:51.978Z,25.93
2023-05-21T09:44:02.098Z,27.63
2023-05-21T09:49:03.856Z,31.43
2023-05-21T09:54:05.648Z,27.63
2023-05-21T09:59:07.711Z,26.70
2023-05-21T10:04:10.524Z,27.37
2023-05-21T10:09:15.025Z,25.70
2023-05-21T10:14:20.514Z,26.93
2023-05-21T10:19:24.939Z,24.97
2023-05-21T10:24:27.330Z,27.03
2023-05-21T10:29:30.429Z,26.33
2023-05-21T10:34:32.968Z,27.30
2023-05-21T10:39:35.650Z,24.93
2023-05-21T10:45:10.696Z,22.57
2023-05-21T10:50:31.565Z,23.87
2023-05-21T10:55:50.463Z,23.57
2023-05-21T11:00:54.031Z,21.87
2023-05-21T11:05:56.697Z,21.50
2023-05-21T11:10:59.024Z,23.10
2023-05-21T11:16:05.426Z,22.37
2023-05-21T11:21:10.500Z,24.00
2023-05-21T11:26:12.206Z,21.87
2023-05-21T11:31:27.536Z,22.63
2023-05-21T11:36:30.025Z,21.90
2023-05-21T11:41:49.349Z,21.00
2023-05-21T11:46:52.439Z,21.50
2023-05-21T11:51:54.300Z,22.38
2023-05-21T11:56:56.504Z,24.88
2023-05-21T12:01:59.276Z,21.40
2023-05-21T12:07:10.414Z,23.48
2023-05-21T12:12:22.707Z,20.60
2023-05-21T12:17:26.386Z,22.38
2023-05-21T12:22:29.772Z,23.30
2023-05-21T12:27:32.893Z,20.38
2023-05-21T12:32:38.188Z,22.80
2023-05-21T12:37:40.026Z,22.48
2023-05-21T12:42:44.467Z,24.08
2023-05-21T12:47:49.942Z,25.53
2023-05-21T12:52:55.009Z,23.67
2023-05-21T12:58:08.859Z,23.13
2023-05-21T13:03:11.294Z,24.63
2023-05-21T13:08:14.395Z,26.93
2023-05-21T13:13:16.279Z,24.83
2023-05-21T13:18:18.112Z,24.17
2023-05-21T13:23:19.906Z,23.03
2023-05-21T13:28:22.051Z,25.83
2023-05-21T13:33:23.937Z,24.37
2023-05-21T13:38:25.828Z,26.70
2023-05-21T13:43:27.639Z,22.83
2023-05-21T13:48:29.346Z,23.77
2023-05-21T13:53:31.129Z,24.63
2023-05-21T13:58:36.046Z,23.63
2023-05-21T14:03:37.770Z,24.83
2023-05-21T14:08:39.618Z,22.97
2023-05-21T14:13:41.393Z,21.87
2023-05-21T14:18:43.140Z,23.90
2023-05-21T14:23:45.071Z,22.43
2023-05-21T14:28:46.960Z,22.83
2023-05-21T14:33:49.093Z,21.47
2023-05-21T14:38:50.972Z,22.83
2023-05-21T14:43:52.945Z,19.60
2023-05-21T14:48:59.112Z,20.60
2023-05-21T14:54:00.928Z,23.77
2023-05-21T14:59:02.680Z,20.73
2023-05-21T15:04:04.971Z,19.13
2023-05-21T15:09:06.954Z,25.33
2023-05-21T15:14:08.703Z,36.83
2023-05-21T15:19:11.867Z,22.30
2023-05-21T15:24:13.774Z,32.67
2023-05-21T15:29:15.876Z,35.13
2023-05-21T15:34:18.059Z,27.43
2023-05-21T15:39:19.899Z,20.90
2023-05-21T15:44:22.035Z,22.70
2023-05-21T15:49:23.852Z,24.73
2023-05-21T15:54:25.731Z,24.27
2023-05-21T15:59:27.625Z,21.93
2023-05-21T16:04:29.478Z,20.17
2023-05-21T16:09:31.385Z,12.37
2023-05-21T16:14:33.155Z,16.70
2023-05-21T16:19:35.066Z,15.90
2023-05-21T16:24:37.275Z,13.93
2023-05-21T16:29:40.879Z,14.57
2023-05-21T16:34:42.909Z,17.60
2023-05-21T16:39:44.629Z,18.93
2023-05-21T16:44:46.334Z,19.60
2023-05-21T16:49:48.030Z,15.90
2023-05-21T16:54:50.015Z,16.00
2023-05-21T16:59:51.759Z,16.90
2023-05-21T17:04:53.492Z,11.93
2023-05-21T17:09:55.315Z,14.00
2023-05-21T17:14:57.181Z,16.30
2023-05-21T17:20:00.536Z,17.67
2023-05-21T17:25:02.564Z,13.43
2023-05-21T17:30:05.548Z,15.93
2023-05-21T17:35:09.394Z,15.77
2023-05-21T17:40:11.720Z,15.83
2023-05-21T17:45:13.496Z,14.47
2023-05-21T17:50:15.560Z,15.30
2023-05-21T17:55:17.523Z,14.23
2023-05-21T18:00:19.751Z,15.80
2023-05-21T18:05:22.728Z,12.07
2023-05-21T18:10:24.636Z,11.83
2023-05-21T18:15:26.403Z,12.93
2023-05-21T18:20:28.207Z,13.63
2023-05-21T18:25:30.123Z,15.90
2023-05-21T18:30:31.952Z,12.97
2023-05-21T18:35:33.791Z,14.30
2023-05-21T18:40:36.954Z,14.20
2023-05-21T18:45:38.936Z,14.20
2023-05-21T18:50:40.766Z,14.23
2023-05-21T18:55:42.484Z,14.20
2023-05-21T19:00:44.446Z,14.70
2023-05-21T19:05:46.322Z,13.33
2023-05-21T19:10:48.061Z,13.37
2023-05-21T19:15:49.882Z,13.97
2023-05-21T19:20:51.624Z,13.13
2023-05-21T19:25:53.496Z,13.43
2023-05-21T19:30:55.309Z,14.77
2023-05-21T19:35:57.075Z,13.10
2023-05-21T19:40:58.832Z,14.87
2023-05-21T19:46:00.702Z,13.57
2023-05-21T19:51:02.914Z,14.43
2023-05-21T19:56:04.673Z,12.47
2023-05-21T20:01:06.977Z,11.97
2023-05-21T20:06:08.989Z,14.60
2023-05-21T20:11:10.978Z,14.50
2023-05-21T20:16:12.960Z,14.37
2023-05-21T20:21:18.467Z,30.63
2023-05-21T20:26:21.791Z,17.07
2023-05-21T20:31:25.263Z,12.63
2023-05-21T20:36:27.145Z,15.97
2023-05-21T20:41:38.786Z,15.07
2023-05-21T20:46:41.206Z,15.23
2023-05-21T20:51:43.032Z,13.07
2023-05-21T20:56:45.130Z,12.73
2023-05-21T21:01:47.226Z,14.27
2023-05-21T21:06:50.313Z,14.73
2023-05-21T21:11:52.130Z,16.07
2023-05-21T21:16:53.930Z,15.77
2023-05-21T21:21:55.979Z,17.13
2023-05-21T21:26:57.900Z,13.63
2023-05-21T21:31:59.713Z,18.47
2023-05-21T21:37:01.458Z,16.55
2023-05-21T21:42:03.275Z,18.13
2023-05-21T21:47:05.635Z,18.10
2023-05-21T21:52:08.144Z,15.47
2023-05-21T21:57:09.915Z,14.73
2023-05-21T22:02:12.862Z,17.67
2023-05-21T22:07:17.794Z,20.00
2023-05-21T22:12:19.574Z,16.20
2023-05-21T22:17:21.508Z,16.13
2023-05-21T22:22:23.426Z,19.00
2023-05-21T22:27:25.421Z,17.93
2023-05-21T22:32:27.157Z,15.20
2023-05-21T22:37:28.994Z,16.93
2023-05-21T22:42:30.723Z,15.80
2023-05-21T22:47:32.619Z,18.13
2023-05-21T22:52:35.033Z,15.63
2023-05-21T22:57:36.771Z,15.60
2023-05-21T23:02:38.645Z,17.83
2023-05-21T23:07:41.352Z,16.70
2023-05-21T23:12:43.172Z,16.43
2023-05-21T23:17:44.985Z,17.73
2023-05-21T23:22:46.744Z,19.93
2023-05-21T23:27:48.541Z,16.47
2023-05-21T23:32:51.395Z,17.33
2023-05-21T23:37:53.166Z,20.70
2023-05-21T23:42:55.119Z,15.93
2023-05-21T23:47:56.927Z,15.57
2023-05-21T23:52:59.316Z,15.30
2023-05-21T23:58:01.362Z,17.00
